createdAt,value
2023-01-29T10:44:37.827Z,13.88
2023-01-29T10:47:24.281Z,14.02
2023-01-29T10:50:04.779Z,15.18
2023-01-29T10:52:44.635Z,15.10
2023-01-29T10:55:21.620Z,15.18
2023-01-29T10:58:05.553Z,16.10
2023-01-29T11:00:39.659Z,17.23
2023-01-29T11:03:27.823Z,16.30
2023-01-29T11:06:14.483Z,16.17
2023-01-29T11:08:42.327Z,16.65
2023-01-29T11:11:19.493Z,16.58
2023-01-29T11:14:07.379Z,16.67
2023-01-29T11:17:00.601Z,16.83
2023-01-29T11:19:40.695Z,16.88
2023-01-29T11:22:20.234Z,16.73
2023-01-29T11:25:18.229Z,16.92
2023-01-29T11:27:56.542Z,17.17
2023-01-29T11:30:34.307Z,16.55
2023-01-29T11:33:20.526Z,16.25
2023-01-29T11:35:48.696Z,16.95
2023-01-29T11:38:16.562Z,17.55
2023-01-29T11:40:45.082Z,16.70
2023-01-29T11:43:31.479Z,17.33
2023-01-29T11:46:24.513Z,16.23
2023-01-29T11:49:02.443Z,16.35
2023-01-29T11:54:07.746Z,16.98
2023-01-29T11:56:44.703Z,16.80
2023-01-29T11:59:50.330Z,16.77
2023-01-29T12:02:37.851Z,15.90
2023-01-29T12:08:24.539Z,17.88
2023-01-29T12:11:24.776Z,18.83
2023-01-29T12:17:04.696Z,17.80
2023-01-29T12:20:09.863Z,17.40
2023-01-29T12:22:48.133Z,18.25
2023-01-29T12:25:55.284Z,17.92
2023-01-29T12:28:34.581Z,18.52
2023-01-29T12:31:08.825Z,17.20
2023-01-29T12:33:44.068Z,18.85
2023-01-29T12:36:21.869Z,18.25
2023-01-29T12:38:50.102Z,19.10
2023-01-29T12:41:33.222Z,20.50
2023-01-29T12:44:21.235Z,18.80
2023-01-29T12:47:23.167Z,18.42
2023-01-29T12:50:04.067Z,19.02
2023-01-29T12:53:06.553Z,18.30
2023-01-29T12:55:43.248Z,19.73
2023-01-29T12:58:52.521Z,19.50
2023-01-29T13:01:42.656Z,20.52
2023-01-29T13:04:19.561Z,19.83
2023-01-29T13:06:59.603Z,20.33
2023-01-29T13:09:33.527Z,20.17
2023-01-29T13:12:12.755Z,19.77
2023-01-29T13:15:05.828Z,21.13
2023-01-29T13:17:38.252Z,21.40
2023-01-29T13:20:19.001Z,20.83
2023-01-29T13:22:49.411Z,20.40
2023-01-29T13:25:20.486Z,22.08
2023-01-29T13:34:33.406Z,21.20
2023-01-29T13:37:43.387Z,21.48
2023-01-29T13:40:40.605Z,21.40
2023-01-29T13:43:23.504Z,23.10
2023-01-29T13:45:54.545Z,22.73
2023-01-29T13:48:43.873Z,22.77
2023-01-29T13:51:33.721Z,20.92
2023-01-29T13:54:17.331Z,22.25
2023-01-29T13:57:01.166Z,22.85
2023-01-29T13:59:53.652Z,22.00
2023-01-29T14:02:30.474Z,21.73
2023-01-29T14:05:37.361Z,22.58
2023-01-29T14:08:35.591Z,23.73
2023-01-29T14:11:29.673Z,23.52
2023-01-29T14:13:59.120Z,25.00
2023-01-29T14:16:35.738Z,24.98
2023-01-29T14:19:06.282Z,24.35
2023-01-29T14:21:43.882Z,23.42
2023-01-29T14:24:29.489Z,25.40
2023-01-29T14:27:36.065Z,22.63
2023-01-29T14:30:15.608Z,23.98
2023-01-29T14:32:48.259Z,23.95
2023-01-29T14:38:26.032Z,24.95
2023-01-29T14:44:45.791Z,28.52
2023-01-29T14:47:43.296Z,27.15
2023-01-29T14:50:52.092Z,26.70
2023-01-29T14:53:58.008Z,25.15
2023-01-29T14:56:37.488Z,24.77
2023-01-29T14:59:31.481Z,26.65
2023-01-29T15:02:35.284Z,24.02
2023-01-29T15:05:11.825Z,26.38
2023-01-29T15:07:47.836Z,26.65
2023-01-29T15:10:35.960Z,27.23
2023-01-29T15:13:17.821Z,25.10
2023-01-29T15:16:03.124Z,26.52
2023-01-29T15:18:42.608Z,25.33
2023-01-29T15:24:48.885Z,24.55
2023-01-29T15:28:10.708Z,25.38
2023-01-29T15:30:39.224Z,24.33
2023-01-29T15:33:33.033Z,25.10
2023-01-29T15:36:08.002Z,24.75
2023-01-29T15:38:37.070Z,23.85
2023-01-29T15:41:21.636Z,27.23
2023-01-29T15:43:56.845Z,22.90
2023-01-29T15:47:40.155Z,24.05
2023-01-29T15:51:00.123Z,22.33
2023-01-29T15:53:49.347Z,21.92
2023-01-29T15:56:24.721Z,21.77
2023-01-29T15:58:53.141Z,22.00
2023-01-29T16:01:21.917Z,21.05
2023-01-29T16:10:35.479Z,22.40
2023-01-29T16:13:56.328Z,23.67
2023-01-29T16:16:25.890Z,23.52
2023-01-29T16:19:00.457Z,23.58
2023-01-29T16:21:29.290Z,24.20
2023-01-29T16:24:10.954Z,25.15
2023-01-29T16:27:01.152Z,27.20
2023-01-29T16:29:33.925Z,26.23
2023-01-29T16:32:04.086Z,29.65
2023-01-29T16:34:45.434Z,27.73
2023-01-29T16:37:31.560Z,28.58
2023-01-29T16:40:01.220Z,26.67
2023-01-29T16:46:49.350Z,26.45
2023-01-29T16:49:30.215Z,27.15
2023-01-29T16:52:15.926Z,28.65
2023-01-29T16:54:44.095Z,30.75
2023-01-29T16:57:26.489Z,30.63
2023-01-29T16:59:57.624Z,29.23
2023-01-29T17:05:31.345Z,28.20
2023-01-29T17:08:00.650Z,31.35
2023-01-29T17:13:39.518Z,26.95
2023-01-29T17:16:26.022Z,30.35
2023-01-29T17:18:54.076Z,30.30
2023-01-29T17:22:01.198Z,28.45
2023-01-29T17:24:29.601Z,28.63
2023-01-29T17:26:58.074Z,28.77
2023-01-29T17:29:32.643Z,30.88
2023-01-29T17:32:42.874Z,31.40
2023-01-29T17:35:14.694Z,29.58
2023-01-29T17:37:43.781Z,31.85
2023-01-29T17:40:21.860Z,31.13
2023-01-29T17:43:05.506Z,30.75
2023-01-29T17:45:48.572Z,29.35
2023-01-29T17:48:28.382Z,28.70
2023-01-29T17:51:06.183Z,28.42
2023-01-29T17:53:45.184Z,29.00
2023-01-29T17:56:23.881Z,29.73
2023-01-29T17:58:51.956Z,31.60
2023-01-29T18:01:19.956Z,28.40
2023-01-29T18:03:54.766Z,28.20
2023-01-29T18:06:30.038Z,29.73
2023-01-29T18:09:53.513Z,29.08
2023-01-29T18:12:47.795Z,27.65
2023-01-29T18:15:28.905Z,27.25
2023-01-29T18:18:01.394Z,29.00
2023-01-29T18:20:38.951Z,30.10
2023-01-29T18:26:01.585Z,27.90
2023-01-29T18:28:34.596Z,27.48
2023-01-29T18:31:04.283Z,26.20
2023-01-29T18:33:34.453Z,27.95
2023-01-29T18:38:51.259Z,28.73
2023-01-29T18:41:19.395Z,29.35
2023-01-29T18:43:50.448Z,27.38
2023-01-29T18:46:19.189Z,28.92
2023-01-29T18:48:49.144Z,28.65
2023-01-29T18:54:38.149Z,27.35
2023-01-29T18:57:13.570Z,27.40
2023-01-29T18:59:44.208Z,26.08
2023-01-29T19:02:17.582Z,27.70
2023-01-29T19:07:47.407Z,27.33
2023-01-29T19:10:19.002Z,28.17
2023-01-29T19:12:48.713Z,27.88
2023-01-29T19:15:20.798Z,30.05
2023-01-29T19:17:51.165Z,30.02
2023-01-29T19:20:19.330Z,28.42
2023-01-29T19:22:48.727Z,29.08
2023-01-29T19:25:22.134Z,29.27
2023-01-29T19:27:50.142Z,30.23
2023-01-29T19:30:19.765Z,28.77
2023-01-29T19:32:47.818Z,28.65
2023-01-29T19:35:18.140Z,29.73
2023-01-29T19:37:55.578Z,29.13
2023-01-29T19:40:30.296Z,30.10
2023-01-29T19:42:59.086Z,28.98
2023-01-29T19:48:41.380Z,27.83
2023-01-29T19:51:46.268Z,29.48
2023-01-29T19:54:14.454Z,30.77
2023-01-29T19:56:42.692Z,29.80
2023-01-29T20:01:44.904Z,27.67
2023-01-29T20:04:13.047Z,28.90
2023-01-29T20:06:40.962Z,30.13
2023-01-29T20:09:08.939Z,30.33
2023-01-29T20:11:36.867Z,29.60
2023-01-29T20:14:05.090Z,30.45
2023-01-29T20:16:33.870Z,30.70
2023-01-29T20:19:13.231Z,30.15
2023-01-29T20:21:45.839Z,30.50
2023-01-29T20:24:14.928Z,31.85
2023-01-29T20:26:43.568Z,30.17
2023-01-29T20:29:11.991Z,30.17
2023-01-29T20:31:39.892Z,30.02
2023-01-29T20:34:08.100Z,28.02
2023-01-29T20:36:39.877Z,28.70
2023-01-29T20:39:12.134Z,29.50
2023-01-29T20:41:45.764Z,28.45
2023-01-29T20:44:16.362Z,28.48
2023-01-29T20:46:46.322Z,28.55
2023-01-29T20:49:14.653Z,26.90
2023-01-29T20:51:47.280Z,28.40
2023-01-29T20:54:16.037Z,27.77
2023-01-29T20:56:45.251Z,27.55
2023-01-29T20:59:15.927Z,27.08
2023-01-29T21:01:44.595Z,27.08
2023-01-29T21:04:12.633Z,26.23
2023-01-29T21:06:40.479Z,26.27
2023-01-29T21:09:08.669Z,26.48
2023-01-29T21:11:36.670Z,26.42
2023-01-29T21:14:07.270Z,27.52
2023-01-29T21:16:35.469Z,27.38
2023-01-29T21:19:03.939Z,27.08
2023-01-29T21:21:37.472Z,28.50
2023-01-29T21:24:13.325Z,25.48
2023-01-29T21:26:42.143Z,27.08
2023-01-29T21:29:11.657Z,26.42
2023-01-29T21:31:48.885Z,27.58
2023-01-29T21:34:17.978Z,27.52
2023-01-29T21:36:53.442Z,25.67
2023-01-29T21:39:33.489Z,29.02
2023-01-29T21:42:20.289Z,29.00
2023-01-29T21:44:51.677Z,26.00
2023-01-29T21:50:09.025Z,25.70
2023-01-29T21:52:37.326Z,27.42
2023-01-29T21:55:13.609Z,27.08
2023-01-29T22:00:56.901Z,26.95
2023-01-29T22:04:07.786Z,25.50
2023-01-29T22:06:36.155Z,27.38
2023-01-29T22:09:04.103Z,27.75
2023-01-29T22:11:41.956Z,26.00
